sensor_id;sensor_type;location;lat;lon;timestamp;temperature;humidity
44271;DHT22;29963;44.594;11.368;2023-05-03T00:01:25;13.60;99.90
44271;DHT22;29963;44.594;11.368;2023-05-03T00:03:53;13.60;99.90
44271;DHT22;29963;44.594;11.368;2023-05-03T00:06:19;13.70;99.90
44271;DHT22;29963;44.594;11.368;2023-05-03T00:08:46;13.60;99.90
44271;DHT22;29963;44.594;11.368;2023-05-03T00:11:12;13.70;99.90
44271;DHT22;29963;44.594;11.368;2023-05-03T00:13:37;13.70;99.90
44271;DHT22;29963;44.594;11.368;2023-05-03T00:16:03;13.60;99.90
44271;DHT22;29963;44.594;11.368;2023-05-03T00:18:29;13.60;99.90
44271;DHT22;29963;44.594;11.368;2023-05-03T00:20:55;13.60;99.90
44271;DHT22;29963;44.594;11.368;2023-05-03T00:23:21;13.60;99.90
44271;DHT22;29963;44.594;11.368;2023-05-03T00:25:52;13.60;99.90
44271;DHT22;29963;44.594;11.368;2023-05-03T00:28:18;13.60;99.90
44271;DHT22;29963;44.594;11.368;2023-05-03T00:30:44;13.50;99.90
44271;DHT22;29963;44.594;11.368;2023-05-03T00:33:09;13.50;99.90
44271;DHT22;29963;44.594;11.368;2023-05-03T00:35:35;13.50;99.90
44271;DHT22;29963;44.594;11.368;2023-05-03T00:38:00;13.50;99.90
44271;DHT22;29963;44.594;11.368;2023-05-03T00:40:26;13.50;99.90
44271;DHT22;29963;44.594;11.368;2023-05-03T00:42:52;13.50;99.90
44271;DHT22;29963;44.594;11.368;2023-05-03T00:45:17;13.50;99.90
44271;DHT22;29963;44.594;11.368;2023-05-03T00:47:43;13.50;99.90
44271;DHT22;29963;44.594;11.368;2023-05-03T00:50:09;13.50;99.90
44271;DHT22;29963;44.594;11.368;2023-05-03T00:52:36;13.50;99.90
44271;DHT22;29963;44.594;11.368;2023-05-03T00:55:02;13.60;99.90
44271;DHT22;29963;44.594;11.368;2023-05-03T00:57:28;13.60;99.90
44271;DHT22;29963;44.594;11.368;2023-05-03T00:59:56;13.60;99.90
44271;DHT22;29963;44.594;11.368;2023-05-03T01:02:22;13.60;99.90
44271;DHT22;29963;44.594;11.368;2023-05-03T01:04:49;13.60;99.90
44271;DHT22;29963;44.594;11.368;2023-05-03T01:07:41;13.60;99.90
44271;DHT22;29963;44.594;11.368;2023-05-03T01:16:15;13.70;99.90
44271;DHT22;29963;44.594;11.368;2023-05-03T01:18:44;13.60;99.90
44271;DHT22;29963;44.594;11.368;2023-05-03T01:21:15;13.60;99.90
44271;DHT22;29963;44.594;11.368;2023-05-03T01:23:50;13.60;99.90
44271;DHT22;29963;44.594;11.368;2023-05-03T01:26:22;13.50;99.90
44271;DHT22;29963;44.594;11.368;2023-05-03T01:28:48;13.50;99.90
44271;DHT22;29963;44.594;11.368;2023-05-03T01:31:20;13.50;99.90
44271;DHT22;29963;44.594;11.368;2023-05-03T01:33:54;13.40;99.90
44271;DHT22;29963;44.594;11.368;2023-05-03T01:36:28;13.40;99.90
44271;DHT22;29963;44.594;11.368;2023-05-03T01:38:58;13.30;99.90
44271;DHT22;29963;44.594;11.368;2023-05-03T01:41:25;13.30;99.90
44271;DHT22;29963;44.594;11.368;2023-05-03T01:43:54;13.30;99.90
44271;DHT22;29963;44.594;11.368;2023-05-03T01:46:21;13.30;99.90
44271;DHT22;29963;44.594;11.368;2023-05-03T01:48:46;13.30;99.90
44271;DHT22;29963;44.594;11.368;2023-05-03T01:51:12;13.30;99.90
44271;DHT22;29963;44.594;11.368;2023-05-03T01:53:38;13.30;99.90
44271;DHT22;29963;44.594;11.368;2023-05-03T01:56:03;13.30;99.90
44271;DHT22;29963;44.594;11.368;2023-05-03T01:58:29;13.20;99.90
44271;DHT22;29963;44.594;11.368;2023-05-03T02:00:55;13.20;99.90
44271;DHT22;29963;44.594;11.368;2023-05-03T02:03:20;13.20;99.90
44271;DHT22;29963;44.594;11.368;2023-05-03T02:05:47;13.10;99.90
44271;DHT22;29963;44.594;11.368;2023-05-03T02:08:12;13.10;99.90
44271;DHT22;29963;44.594;11.368;2023-05-03T02:10:38;13.10;99.90
44271;DHT22;29963;44.594;11.368;2023-05-03T02:13:04;13.10;99.90
44271;DHT22;29963;44.594;11.368;2023-05-03T02:15:29;13.10;99.90
44271;DHT22;29963;44.594;11.368;2023-05-03T02:17:56;13.10;99.90
44271;DHT22;29963;44.594;11.368;2023-05-03T02:20:22;13.10;99.90
44271;DHT22;29963;44.594;11.368;2023-05-03T02:22:48;13.10;99.90
44271;DHT22;29963;44.594;11.368;2023-05-03T02:25:13;13.10;99.90
44271;DHT22;29963;44.594;11.368;2023-05-03T02:27:39;13.10;99.90
44271;DHT22;29963;44.594;11.368;2023-05-03T02:30:05;13.20;99.90
44271;DHT22;29963;44.594;11.368;2023-05-03T02:32:31;13.20;99.90
44271;DHT22;29963;44.594;11.368;2023-05-03T02:34:57;13.10;99.90
44271;DHT22;29963;44.594;11.368;2023-05-03T02:37:22;13.20;99.90
44271;DHT22;29963;44.594;11.368;2023-05-03T02:39:48;13.10;99.90
44271;DHT22;29963;44.594;11.368;2023-05-03T02:42:14;13.20;99.90
44271;DHT22;29963;44.594;11.368;2023-05-03T02:44:40;13.20;99.90
44271;DHT22;29963;44.594;11.368;2023-05-03T02:47:06;13.20;99.90
44271;DHT22;29963;44.594;11.368;2023-05-03T02:49:31;13.20;99.90
44271;DHT22;29963;44.594;11.368;2023-05-03T02:51:57;13.20;99.90
44271;DHT22;29963;44.594;11.368;2023-05-03T02:54:23;13.20;99.90
44271;DHT22;29963;44.594;11.368;2023-05-03T02:56:49;13.20;99.90
44271;DHT22;29963;44.594;11.368;2023-05-03T02:59:14;13.10;99.90
44271;DHT22;29963;44.594;11.368;2023-05-03T03:01:40;13.20;99.90
44271;DHT22;29963;44.594;11.368;2023-05-03T03:04:05;13.20;99.90
44271;DHT22;29963;44.594;11.368;2023-05-03T03:06:31;13.20;99.90
44271;DHT22;29963;44.594;11.368;2023-05-03T03:08:57;13.20;99.90
44271;DHT22;29963;44.594;11.368;2023-05-03T03:11:22;13.20;99.90
44271;DHT22;29963;44.594;11.368;2023-05-03T03:13:48;13.10;99.90
44271;DHT22;29963;44.594;11.368;2023-05-03T03:16:14;13.10;99.90
44271;DHT22;29963;44.594;11.368;2023-05-03T03:18:39;13.10;99.90
44271;DHT22;29963;44.594;11.368;2023-05-03T03:21:05;13.10;99.90
44271;DHT22;29963;44.594;11.368;2023-05-03T03:23:31;13.10;99.90
44271;DHT22;29963;44.594;11.368;2023-05-03T03:25:56;13.10;99.90
44271;DHT22;29963;44.594;11.368;2023-05-03T03:28:22;13.10;99.90
44271;DHT22;29963;44.594;11.368;2023-05-03T03:30:47;13.10;99.90
44271;DHT22;29963;44.594;11.368;2023-05-03T03:33:13;13.10;99.90
44271;DHT22;29963;44.594;11.368;2023-05-03T03:35:39;13.10;99.90
44271;DHT22;29963;44.594;11.368;2023-05-03T03:38:05;13.10;99.90
44271;DHT22;29963;44.594;11.368;2023-05-03T03:40:31;13.10;99.90
44271;DHT22;29963;44.594;11.368;2023-05-03T03:42:56;13.10;99.90
44271;DHT22;29963;44.594;11.368;2023-05-03T03:45:22;13.10;99.90
44271;DHT22;29963;44.594;11.368;2023-05-03T03:47:47;13.10;99.90
44271;DHT22;29963;44.594;11.368;2023-05-03T03:50:13;13.20;99.90
44271;DHT22;29963;44.594;11.368;2023-05-03T03:52:39;13.10;99.90
44271;DHT22;29963;44.594;11.368;2023-05-03T03:55:05;13.20;99.90
44271;DHT22;29963;44.594;11.368;2023-05-03T03:57:31;13.20;99.90
44271;DHT22;29963;44.594;11.368;2023-05-03T03:59:57;13.20;99.90
44271;DHT22;29963;44.594;11.368;2023-05-03T04:02:23;13.20;99.90
44271;DHT22;29963;44.594;11.368;2023-05-03T04:04:49;13.30;99.90
44271;DHT22;29963;44.594;11.368;2023-05-03T04:07:15;13.30;99.90
44271;DHT22;29963;44.594;11.368;2023-05-03T04:09:41;13.30;99.90
44271;DHT22;29963;44.594;11.368;2023-05-03T04:12:06;13.30;99.90
44271;DHT22;29963;44.594;11.368;2023-05-03T04:14:32;13.20;99.90
44271;DHT22;29963;44.594;11.368;2023-05-03T04:16:58;13.10;99.90
44271;DHT22;29963;44.594;11.368;2023-05-03T04:19:24;13.10;99.90
44271;DHT22;29963;44.594;11.368;2023-05-03T04:21:51;13.20;99.90
44271;DHT22;29963;44.594;11.368;2023-05-03T04:24:17;13.20;99.90
44271;DHT22;29963;44.594;11.368;2023-05-03T04:26:43;13.20;99.90
44271;DHT22;29963;44.594;11.368;2023-05-03T04:29:09;13.20;99.90
44271;DHT22;29963;44.594;11.368;2023-05-03T04:31:37;13.20;99.90
44271;DHT22;29963;44.594;11.368;2023-05-03T04:34:04;13.20;99.90
44271;DHT22;29963;44.594;11.368;2023-05-03T04:36:30;13.20;99.90
44271;DHT22;29963;44.594;11.368;2023-05-03T04:38:56;13.20;99.90
44271;DHT22;29963;44.594;11.368;2023-05-03T04:41:22;13.20;99.90
44271;DHT22;29963;44.594;11.368;2023-05-03T04:43:48;13.10;99.90
44271;DHT22;29963;44.594;11.368;2023-05-03T04:46:14;13.20;99.90
44271;DHT22;29963;44.594;11.368;2023-05-03T04:48:41;13.20;99.90
44271;DHT22;29963;44.594;11.368;2023-05-03T04:51:06;13.20;99.90
44271;DHT22;29963;44.594;11.368;2023-05-03T04:53:32;13.20;99.90
44271;DHT22;29963;44.594;11.368;2023-05-03T04:55:58;13.20;99.90
44271;DHT22;29963;44.594;11.368;2023-05-03T04:58:23;13.20;99.90
44271;DHT22;29963;44.594;11.368;2023-05-03T05:00:49;13.20;99.90
44271;DHT22;29963;44.594;11.368;2023-05-03T05:03:15;13.20;99.90
44271;DHT22;29963;44.594;11.368;2023-05-03T05:05:40;13.20;99.90
44271;DHT22;29963;44.594;11.368;2023-05-03T05:08:06;13.20;99.90
44271;DHT22;29963;44.594;11.368;2023-05-03T05:10:36;13.20;99.90
44271;DHT22;29963;44.594;11.368;2023-05-03T05:13:02;13.20;99.90
44271;DHT22;29963;44.594;11.368;2023-05-03T05:15:27;13.20;99.90
44271;DHT22;29963;44.594;11.368;2023-05-03T05:17:53;13.20;99.90
44271;DHT22;29963;44.594;11.368;2023-05-03T05:20:18;13.20;99.90
44271;DHT22;29963;44.594;11.368;2023-05-03T05:22:44;13.20;99.90
44271;DHT22;29963;44.594;11.368;2023-05-03T05:25:10;13.20;99.90
44271;DHT22;29963;44.594;11.368;2023-05-03T05:27:36;13.20;99.90
44271;DHT22;29963;44.594;11.368;2023-05-03T05:30:01;13.20;99.90
44271;DHT22;29963;44.594;11.368;2023-05-03T05:32:29;13.20;99.90
44271;DHT22;29963;44.594;11.368;2023-05-03T05:34:54;13.30;99.90
44271;DHT22;29963;44.594;11.368;2023-05-03T05:37:21;13.20;99.90
44271;DHT22;29963;44.594;11.368;2023-05-03T05:39:47;13.20;99.90
44271;DHT22;29963;44.594;11.368;2023-05-03T05:42:13;13.20;99.90
44271;DHT22;29963;44.594;11.368;2023-05-03T05:44:38;13.20;99.90
44271;DHT22;29963;44.594;11.368;2023-05-03T05:47:04;13.20;99.90
44271;DHT22;29963;44.594;11.368;2023-05-03T05:49:30;13.20;99.90
44271;DHT22;29963;44.594;11.368;2023-05-03T05:51:56;13.20;99.90
44271;DHT22;29963;44.594;11.368;2023-05-03T05:54:22;13.20;99.90
44271;DHT22;29963;44.594;11.368;2023-05-03T05:56:48;13.30;99.90
44271;DHT22;29963;44.594;11.368;2023-05-03T05:59:13;13.30;99.90
44271;DHT22;29963;44.594;11.368;2023-05-03T06:01:39;13.30;99.90
44271;DHT22;29963;44.594;11.368;2023-05-03T06:04:11;13.30;99.90
44271;DHT22;29963;44.594;11.368;2023-05-03T06:06:36;13.30;99.90
44271;DHT22;29963;44.594;11.368;2023-05-03T06:09:02;13.30;99.90
44271;DHT22;29963;44.594;11.368;2023-05-03T06:11:28;13.30;99.90
44271;DHT22;29963;44.594;11.368;2023-05-03T06:13:54;13.30;99.90
44271;DHT22;29963;44.594;11.368;2023-05-03T06:16:21;13.30;99.90
44271;DHT22;29963;44.594;11.368;2023-05-03T06:18:47;13.40;99.90
44271;DHT22;29963;44.594;11.368;2023-05-03T06:21:12;13.40;99.90
44271;DHT22;29963;44.594;11.368;2023-05-03T06:23:38;13.50;99.90
44271;DHT22;29963;44.594;11.368;2023-05-03T06:26:05;13.50;99.90
44271;DHT22;29963;44.594;11.368;2023-05-03T06:28:30;13.50;99.90
44271;DHT22;29963;44.594;11.368;2023-05-03T06:30:56;13.50;99.90
44271;DHT22;29963;44.594;11.368;2023-05-03T06:33:22;13.50;99.90
44271;DHT22;29963;44.594;11.368;2023-05-03T06:35:47;13.50;99.90
44271;DHT22;29963;44.594;11.368;2023-05-03T06:38:13;13.50;99.90
44271;DHT22;29963;44.594;11.368;2023-05-03T06:40:39;13.60;99.90
44271;DHT22;29963;44.594;11.368;2023-05-03T06:43:06;13.60;99.90
44271;DHT22;29963;44.594;11.368;2023-05-03T06:45:32;13.60;99.90
44271;DHT22;29963;44.594;11.368;2023-05-03T06:47:57;13.60;99.90
44271;DHT22;29963;44.594;11.368;2023-05-03T06:50:23;13.60;99.90
44271;DHT22;29963;44.594;11.368;2023-05-03T06:52:49;13.70;99.90
44271;DHT22;29963;44.594;11.368;2023-05-03T06:55:15;13.70;99.90
44271;DHT22;29963;44.594;11.368;2023-05-03T06:57:41;13.70;99.90
44271;DHT22;29963;44.594;11.368;2023-05-03T07:00:08;13.70;99.90
44271;DHT22;29963;44.594;11.368;2023-05-03T07:02:34;13.60;99.90
44271;DHT22;29963;44.594;11.368;2023-05-03T07:04:59;13.60;99.90
44271;DHT22;29963;44.594;11.368;2023-05-03T07:07:25;13.60;99.90
44271;DHT22;29963;44.594;11.368;2023-05-03T07:09:51;13.60;99.90
44271;DHT22;29963;44.594;11.368;2023-05-03T07:12:16;13.60;99.90
44271;DHT22;29963;44.594;11.368;2023-05-03T07:14:42;13.60;99.90
44271;DHT22;29963;44.594;11.368;2023-05-03T07:17:08;13.60;99.90
44271;DHT22;29963;44.594;11.368;2023-05-03T07:19:34;13.60;99.90
44271;DHT22;29963;44.594;11.368;2023-05-03T07:22:01;13.60;99.90
44271;DHT22;29963;44.594;11.368;2023-05-03T07:24:28;13.70;99.90
44271;DHT22;29963;44.594;11.368;2023-05-03T07:26:53;13.70;99.90
44271;DHT22;29963;44.594;11.368;2023-05-03T07:29:20;13.70;99.90
44271;DHT22;29963;44.594;11.368;2023-05-03T07:31:46;13.70;99.90
44271;DHT22;29963;44.594;11.368;2023-05-03T07:34:11;13.80;99.90
44271;DHT22;29963;44.594;11.368;2023-05-03T07:36:38;13.80;99.90
44271;DHT22;29963;44.594;11.368;2023-05-03T07:39:03;13.70;99.90
44271;DHT22;29963;44.594;11.368;2023-05-03T07:41:29;13.80;99.90
44271;DHT22;29963;44.594;11.368;2023-05-03T07:43:55;13.80;99.90
44271;DHT22;29963;44.594;11.368;2023-05-03T07:46:21;13.80;99.90
44271;DHT22;29963;44.594;11.368;2023-05-03T07:48:47;13.80;99.90
44271;DHT22;29963;44.594;11.368;2023-05-03T07:51:13;13.80;99.90
44271;DHT22;29963;44.594;11.368;2023-05-03T07:53:39;13.90;99.90
44271;DHT22;29963;44.594;11.368;2023-05-03T07:56:06;14.00;99.90
44271;DHT22;29963;44.594;11.368;2023-05-03T07:58:32;14.00;99.90
44271;DHT22;29963;44.594;11.368;2023-05-03T08:00:57;14.10;99.90
44271;DHT22;29963;44.594;11.368;2023-05-03T08:03:23;14.10;99.90
44271;DHT22;29963;44.594;11.368;2023-05-03T08:05:49;14.10;99.90
44271;DHT22;29963;44.594;11.368;2023-05-03T08:08:15;14.10;99.90
44271;DHT22;29963;44.594;11.368;2023-05-03T08:10:40;14.10;99.90
44271;DHT22;29963;44.594;11.368;2023-05-03T08:13:06;14.10;99.90
44271;DHT22;29963;44.594;11.368;2023-05-03T08:15:32;14.10;99.90
44271;DHT22;29963;44.594;11.368;2023-05-03T08:17:58;14.10;99.90
44271;DHT22;29963;44.594;11.368;2023-05-03T08:20:24;14.20;99.90
44271;DHT22;29963;44.594;11.368;2023-05-03T08:22:52;14.20;99.90
44271;DHT22;29963;44.594;11.368;2023-05-03T08:25:24;14.20;99.90
44271;DHT22;29963;44.594;11.368;2023-05-03T08:27:51;14.20;99.90
44271;DHT22;29963;44.594;11.368;2023-05-03T08:30:17;14.30;99.90
44271;DHT22;29963;44.594;11.368;2023-05-03T08:32:42;14.30;99.90
44271;DHT22;29963;44.594;11.368;2023-05-03T08:35:08;14.30;99.90
44271;DHT22;29963;44.594;11.368;2023-05-03T08:37:41;14.30;99.90
44271;DHT22;29963;44.594;11.368;2023-05-03T08:40:08;14.40;99.90
44271;DHT22;29963;44.594;11.368;2023-05-03T08:42:42;14.30;99.90
44271;DHT22;29963;44.594;11.368;2023-05-03T08:45:12;14.40;99.90
44271;DHT22;29963;44.594;11.368;2023-05-03T08:47:40;14.40;99.90
44271;DHT22;29963;44.594;11.368;2023-05-03T08:50:07;14.50;99.90
44271;DHT22;29963;44.594;11.368;2023-05-03T08:52:33;14.50;99.90
44271;DHT22;29963;44.594;11.368;2023-05-03T08:54:59;14.50;99.90
44271;DHT22;29963;44.594;11.368;2023-05-03T08:57:26;14.60;99.90
44271;DHT22;29963;44.594;11.368;2023-05-03T08:59:53;14.50;99.90
44271;DHT22;29963;44.594;11.368;2023-05-03T09:02:22;14.50;99.90
44271;DHT22;29963;44.594;11.368;2023-05-03T09:04:48;14.60;99.90
44271;DHT22;29963;44.594;11.368;2023-05-03T09:07:14;14.60;99.90
44271;DHT22;29963;44.594;11.368;2023-05-03T09:09:41;14.60;99.90
44271;DHT22;29963;44.594;11.368;2023-05-03T09:12:08;14.70;99.90
44271;DHT22;29963;44.594;11.368;2023-05-03T09:14:41;14.70;99.90
44271;DHT22;29963;44.594;11.368;2023-05-03T09:17:16;14.70;99.90
44271;DHT22;29963;44.594;11.368;2023-05-03T09:19:51;14.70;99.90
44271;DHT22;29963;44.594;11.368;2023-05-03T09:22:18;14.80;99.90
44271;DHT22;29963;44.594;11.368;2023-05-03T09:24:56;14.80;99.90
44271;DHT22;29963;44.594;11.368;2023-05-03T09:27:23;14.70;99.90
44271;DHT22;29963;44.594;11.368;2023-05-03T09:29:50;14.80;99.90
44271;DHT22;29963;44.594;11.368;2023-05-03T09:32:16;14.80;99.90
44271;DHT22;29963;44.594;11.368;2023-05-03T09:34:43;14.90;99.90
44271;DHT22;29963;44.594;11.368;2023-05-03T09:37:09;14.90;99.90
44271;DHT22;29963;44.594;11.368;2023-05-03T09:39:35;15.00;99.90
44271;DHT22;29963;44.594;11.368;2023-05-03T09:42:14;15.10;99.90
44271;DHT22;29963;44.594;11.368;2023-05-03T09:44:47;15.10;99.90
44271;DHT22;29963;44.594;11.368;2023-05-03T09:47:16;15.10;99.90
44271;DHT22;29963;44.594;11.368;2023-05-03T09:49:42;15.20;99.90
44271;DHT22;29963;44.594;11.368;2023-05-03T09:52:08;15.20;99.90
44271;DHT22;29963;44.594;11.368;2023-05-03T09:54:34;15.30;99.90
44271;DHT22;29963;44.594;11.368;2023-05-03T09:57:01;15.30;99.90
44271;DHT22;29963;44.594;11.368;2023-05-03T09:59:29;15.30;99.90
44271;DHT22;29963;44.594;11.368;2023-05-03T10:01:58;15.30;99.90
44271;DHT22;29963;44.594;11.368;2023-05-03T10:04:26;15.40;99.90
44271;DHT22;29963;44.594;11.368;2023-05-03T10:06:57;15.40;99.90
44271;DHT22;29963;44.594;11.368;2023-05-03T10:09:42;15.50;99.90
44271;DHT22;29963;44.594;11.368;2023-05-03T10:12:09;15.50;99.90
44271;DHT22;29963;44.594;11.368;2023-05-03T10:14:39;15.50;99.90
44271;DHT22;29963;44.594;11.368;2023-05-03T10:17:10;15.60;99.90
44271;DHT22;29963;44.594;11.368;2023-05-03T10:19:55;15.60;99.90
44271;DHT22;29963;44.594;11.368;2023-05-03T10:22:22;15.60;99.90
44271;DHT22;29963;44.594;11.368;2023-05-03T10:30:11;15.90;99.90
44271;DHT22;29963;44.594;11.368;2023-05-03T10:32:51;15.90;99.90
44271;DHT22;29963;44.594;11.368;2023-05-03T10:35:17;15.90;99.90
44271;DHT22;29963;44.594;11.368;2023-05-03T10:37:44;16.00;99.90
44271;DHT22;29963;44.594;11.368;2023-05-03T10:40:14;16.10;99.90
44271;DHT22;29963;44.594;11.368;2023-05-03T10:42:50;16.20;99.90
44271;DHT22;29963;44.594;11.368;2023-05-03T10:45:27;16.30;99.90
44271;DHT22;29963;44.594;11.368;2023-05-03T10:48:14;16.40;99.90
44271;DHT22;29963;44.594;11.368;2023-05-03T10:50:44;16.40;99.90
44271;DHT22;29963;44.594;11.368;2023-05-03T10:56:01;16.50;99.90
44271;DHT22;29963;44.594;11.368;2023-05-03T10:58:35;16.60;99.90
44271;DHT22;29963;44.594;11.368;2023-05-03T11:01:02;16.70;99.90
44271;DHT22;29963;44.594;11.368;2023-05-03T11:06:05;16.60;99.90
44271;DHT22;29963;44.594;11.368;2023-05-03T11:08:31;16.60;99.90
44271;DHT22;29963;44.594;11.368;2023-05-03T11:11:03;16.60;99.90
44271;DHT22;29963;44.594;11.368;2023-05-03T11:13:37;16.60;99.90
44271;DHT22;29963;44.594;11.368;2023-05-03T11:16:03;16.70;99.90
44271;DHT22;29963;44.594;11.368;2023-05-03T11:18:32;16.70;99.90
44271;DHT22;29963;44.594;11.368;2023-05-03T11:20:58;16.70;99.90
44271;DHT22;29963;44.594;11.368;2023-05-03T11:23:27;16.70;99.90
44271;DHT22;29963;44.594;11.368;2023-05-03T11:25:53;16.70;99.90
44271;DHT22;29963;44.594;11.368;2023-05-03T11:28:21;16.70;99.90
44271;DHT22;29963;44.594;11.368;2023-05-03T11:30:46;16.70;99.90
44271;DHT22;29963;44.594;11.368;2023-05-03T11:33:12;16.80;99.90
44271;DHT22;29963;44.594;11.368;2023-05-03T11:35:38;16.70;99.90
44271;DHT22;29963;44.594;11.368;2023-05-03T11:38:04;16.80;99.90
44271;DHT22;29963;44.594;11.368;2023-05-03T11:40:30;16.80;99.90
44271;DHT22;29963;44.594;11.368;2023-05-03T11:42:58;16.80;99.90
44271;DHT22;29963;44.594;11.368;2023-05-03T11:45:37;16.80;99.90
44271;DHT22;29963;44.594;11.368;2023-05-03T11:48:04;16.80;99.90
44271;DHT22;29963;44.594;11.368;2023-05-03T11:50:44;16.90;99.90
44271;DHT22;29963;44.594;11.368;2023-05-03T11:53:14;16.90;99.90
44271;DHT22;29963;44.594;11.368;2023-05-03T11:55:45;16.90;99.90
44271;DHT22;29963;44.594;11.368;2023-05-03T11:58:20;16.90;99.90
44271;DHT22;29963;44.594;11.368;2023-05-03T12:00:48;17.00;99.90
44271;DHT22;29963;44.594;11.368;2023-05-03T12:05:48;17.00;99.90
44271;DHT22;29963;44.594;11.368;2023-05-03T12:08:14;17.00;99.90
44271;DHT22;29963;44.594;11.368;2023-05-03T12:10:41;17.00;99.90
44271;DHT22;29963;44.594;11.368;2023-05-03T12:13:06;17.10;99.90
44271;DHT22;29963;44.594;11.368;2023-05-03T12:15:33;17.10;99.90
44271;DHT22;29963;44.594;11.368;2023-05-03T12:18:01;17.10;99.90
44271;DHT22;29963;44.594;11.368;2023-05-03T12:20:28;17.20;99.90
44271;DHT22;29963;44.594;11.368;2023-05-03T12:23:00;17.20;99.90
44271;DHT22;29963;44.594;11.368;2023-05-03T12:25:28;17.20;99.90
44271;DHT22;29963;44.594;11.368;2023-05-03T12:27:55;17.30;99.90
44271;DHT22;29963;44.594;11.368;2023-05-03T12:30:22;17.40;99.90
44271;DHT22;29963;44.594;11.368;2023-05-03T12:32:48;17.50;99.90
44271;DHT22;29963;44.594;11.368;2023-05-03T12:35:15;17.50;99.90
44271;DHT22;29963;44.594;11.368;2023-05-03T12:37:40;17.50;99.90
44271;DHT22;29963;44.594;11.368;2023-05-03T12:40:07;17.50;99.90
44271;DHT22;29963;44.594;11.368;2023-05-03T12:42:33;17.70;99.90
44271;DHT22;29963;44.594;11.368;2023-05-03T12:44:59;17.70;99.90
44271;DHT22;29963;44.594;11.368;2023-05-03T12:47:25;17.80;99.90
44271;DHT22;29963;44.594;11.368;2023-05-03T12:49:53;17.90;99.90
44271;DHT22;29963;44.594;11.368;2023-05-03T12:52:20;18.00;99.90
44271;DHT22;29963;44.594;11.368;2023-05-03T12:54:49;18.10;99.90
44271;DHT22;29963;44.594;11.368;2023-05-03T12:57:15;18.20;99.90
44271;DHT22;29963;44.594;11.368;2023-05-03T12:59:41;18.20;99.90
44271;DHT22;29963;44.594;11.368;2023-05-03T13:02:08;18.30;99.90
44271;DHT22;29963;44.594;11.368;2023-05-03T13:04:34;18.30;99.90
44271;DHT22;29963;44.594;11.368;2023-05-03T13:07:00;18.40;99.90
44271;DHT22;29963;44.594;11.368;2023-05-03T13:09:26;18.50;99.90
44271;DHT22;29963;44.594;11.368;2023-05-03T13:11:51;18.70;99.90
44271;DHT22;29963;44.594;11.368;2023-05-03T13:14:17;18.70;99.90
44271;DHT22;29963;44.594;11.368;2023-05-03T13:16:44;18.90;99.90
44271;DHT22;29963;44.594;11.368;2023-05-03T13:19:12;19.00;99.90
44271;DHT22;29963;44.594;11.368;2023-05-03T13:21:38;19.10;99.90
44271;DHT22;29963;44.594;11.368;2023-05-03T13:24:04;19.20;99.90
44271;DHT22;29963;44.594;11.368;2023-05-03T13:26:31;19.30;99.90
44271;DHT22;29963;44.594;11.368;2023-05-03T13:28:59;19.40;99.90
44271;DHT22;29963;44.594;11.368;2023-05-03T13:31:26;19.50;99.90
44271;DHT22;29963;44.594;11.368;2023-05-03T13:33:53;19.60;99.90
44271;DHT22;29963;44.594;11.368;2023-05-03T13:36:19;19.80;99.90
44271;DHT22;29963;44.594;11.368;2023-05-03T13:38:47;19.90;99.90
44271;DHT22;29963;44.594;11.368;2023-05-03T13:41:14;20.10;99.90
44271;DHT22;29963;44.594;11.368;2023-05-03T13:43:41;20.30;99.90
44271;DHT22;29963;44.594;11.368;2023-05-03T13:46:08;20.40;99.90
44271;DHT22;29963;44.594;11.368;2023-05-03T13:48:34;20.50;99.90
44271;DHT22;29963;44.594;11.368;2023-05-03T13:51:05;20.60;99.90
44271;DHT22;29963;44.594;11.368;2023-05-03T13:53:31;20.60;99.90
44271;DHT22;29963;44.594;11.368;2023-05-03T13:55:56;20.70;99.90
44271;DHT22;29963;44.594;11.368;2023-05-03T13:58:22;20.70;99.90
44271;DHT22;29963;44.594;11.368;2023-05-03T14:00:48;20.70;99.90
44271;DHT22;29963;44.594;11.368;2023-05-03T14:03:13;20.80;99.90
44271;DHT22;29963;44.594;11.368;2023-05-03T14:05:39;20.90;99.90
44271;DHT22;29963;44.594;11.368;2023-05-03T14:08:05;21.10;99.90
44271;DHT22;29963;44.594;11.368;2023-05-03T14:10:33;21.20;99.90
44271;DHT22;29963;44.594;11.368;2023-05-03T14:12:59;21.30;99.90
44271;DHT22;29963;44.594;11.368;2023-05-03T14:15:25;21.40;99.90
44271;DHT22;29963;44.594;11.368;2023-05-03T14:17:50;21.30;99.90
44271;DHT22;29963;44.594;11.368;2023-05-03T14:20:16;21.30;99.90
44271;DHT22;29963;44.594;11.368;2023-05-03T14:22:43;21.60;99.90
44271;DHT22;29963;44.594;11.368;2023-05-03T14:25:09;21.80;99.90
44271;DHT22;29963;44.594;11.368;2023-05-03T14:27:34;22.00;99.90
44271;DHT22;29963;44.594;11.368;2023-05-03T14:30:00;22.20;99.90
44271;DHT22;29963;44.594;11.368;2023-05-03T14:32:26;22.40;99.90
44271;DHT22;29963;44.594;11.368;2023-05-03T14:34:52;22.60;99.90
44271;DHT22;29963;44.594;11.368;2023-05-03T14:37:18;23.00;99.90
44271;DHT22;29963;44.594;11.368;2023-05-03T14:40:02;23.20;99.90
44271;DHT22;29963;44.594;11.368;2023-05-03T14:42:30;23.10;99.90
44271;DHT22;29963;44.594;11.368;2023-05-03T14:44:56;22.90;99.90
44271;DHT22;29963;44.594;11.368;2023-05-03T14:47:22;22.60;99.90
44271;DHT22;29963;44.594;11.368;2023-05-03T14:49:48;22.30;99.90
44271;DHT22;29963;44.594;11.368;2023-05-03T14:52:13;22.10;99.90
44271;DHT22;29963;44.594;11.368;2023-05-03T14:54:39;21.90;99.90
44271;DHT22;29963;44.594;11.368;2023-05-03T14:57:04;21.70;99.90
44271;DHT22;29963;44.594;11.368;2023-05-03T14:59:31;21.60;99.90
44271;DHT22;29963;44.594;11.368;2023-05-03T15:01:58;21.60;99.90
44271;DHT22;29963;44.594;11.368;2023-05-03T15:04:23;21.60;99.90
44271;DHT22;29963;44.594;11.368;2023-05-03T15:06:50;21.60;99.90
44271;DHT22;29963;44.594;11.368;2023-05-03T15:09:15;21.90;99.90
44271;DHT22;29963;44.594;11.368;2023-05-03T15:11:42;22.30;99.90
44271;DHT22;29963;44.594;11.368;2023-05-03T15:14:08;22.70;99.90
44271;DHT22;29963;44.594;11.368;2023-05-03T15:16:34;23.10;99.90
44271;DHT22;29963;44.594;11.368;2023-05-03T15:19:00;23.40;99.90
44271;DHT22;29963;44.594;11.368;2023-05-03T15:21:26;23.80;99.90
44271;DHT22;29963;44.594;11.368;2023-05-03T15:23:53;24.30;99.90
44271;DHT22;29963;44.594;11.368;2023-05-03T15:26:18;24.80;99.90
44271;DHT22;29963;44.594;11.368;2023-05-03T15:28:44;25.30;99.90
44271;DHT22;29963;44.594;11.368;2023-05-03T15:31:14;25.80;99.90
44271;DHT22;29963;44.594;11.368;2023-05-03T15:33:41;26.10;99.90